sensor_id;sensor_type;location;lat;lon;timestamp;pressure;altitude;pressure_sealevel;temperature;humidity
21182;BME280;10749;46.296;7.524;2024-03-23T00:54:12;94714.19;;;13.09;38.36
21182;BME280;10749;46.296;7.524;2024-03-23T00:56:37;94720.22;;;12.89;38.03
21182;BME280;10749;46.296;7.524;2024-03-23T00:59:02;94714.06;;;12.82;37.81
21182;BME280;10749;46.296;7.524;2024-03-23T01:01:27;94705.09;;;12.83;37.99
21182;BME280;10749;46.296;7.524;2024-03-23T01:03:53;94709.53;;;12.76;38.02
21182;BME280;10749;46.296;7.524;2024-03-23T01:06:18;94690.94;;;12.70;37.96
21182;BME280;10749;46.296;7.524;2024-03-23T01:08:43;94695.00;;;12.72;38.49
21182;BME280;10749;46.296;7.524;2024-03-23T01:11:09;94700.09;;;12.67;38.67
21182;BME280;10749;46.296;7.524;2024-03-23T01:13:34;94695.56;;;12.61;38.97
21182;BME280;10749;46.296;7.524;2024-03-23T01:15:59;94704.50;;;12.54;39.19
21182;BME280;10749;46.296;7.524;2024-03-23T01:18:25;94689.78;;;12.51;39.21
21182;BME280;10749;46.296;7.524;2024-03-23T01:20:51;94686.69;;;12.47;39.73
21182;BME280;10749;46.296;7.524;2024-03-23T01:23:17;94694.91;;;12.53;39.84
21182;BME280;10749;46.296;7.524;2024-03-23T01:25:42;94686.50;;;12.49;39.90
21182;BME280;10749;46.296;7.524;2024-03-23T01:28:08;94690.56;;;12.45;39.31
21182;BME280;10749;46.296;7.524;2024-03-23T01:30:34;94685.25;;;12.45;39.85
21182;BME280;10749;46.296;7.524;2024-03-23T01:32:59;94689.09;;;12.42;39.38
21182;BME280;10749;46.296;7.524;2024-03-23T01:35:25;94696.03;;;12.37;40.00
21182;BME280;10749;46.296;7.524;2024-03-23T01:37:50;94692.16;;;12.39;39.92
21182;BME280;10749;46.296;7.524;2024-03-23T01:40:18;94680.72;;;12.39;40.01
21182;BME280;10749;46.296;7.524;2024-03-23T01:43:05;94679.75;;;12.19;40.04
21182;BME280;10749;46.296;7.524;2024-03-23T01:45:33;94676.88;;;12.14;40.00
21182;BME280;10749;46.296;7.524;2024-03-23T01:47:58;94677.19;;;12.25;39.83
21182;BME280;10749;46.296;7.524;2024-03-23T01:50:24;94675.19;;;12.34;39.85
21182;BME280;10749;46.296;7.524;2024-03-23T01:52:50;94682.28;;;12.27;39.53
21182;BME280;10749;46.296;7.524;2024-03-23T01:55:16;94676.59;;;12.30;40.07
21182;BME280;10749;46.296;7.524;2024-03-23T01:57:41;94674.97;;;12.29;40.23
21182;BME280;10749;46.296;7.524;2024-03-23T02:00:07;94660.63;;;12.23;39.63
21182;BME280;10749;46.296;7.524;2024-03-23T02:02:33;94659.19;;;12.21;39.51
21182;BME280;10749;46.296;7.524;2024-03-23T02:04:58;94662.25;;;12.24;40.16
21182;BME280;10749;46.296;7.524;2024-03-23T02:07:24;94655.72;;;12.20;40.35
21182;BME280;10749;46.296;7.524;2024-03-23T02:09:51;94661.31;;;12.04;39.94
21182;BME280;10749;46.296;7.524;2024-03-23T02:12:17;94653.94;;;11.99;39.64
21182;BME280;10749;46.296;7.524;2024-03-23T02:14:42;94658.06;;;12.09;40.07
21182;BME280;10749;46.296;7.524;2024-03-23T02:17:08;94656.03;;;12.11;39.59
21182;BME280;10749;46.296;7.524;2024-03-23T02:19:34;94643.00;;;12.09;40.04
21182;BME280;10749;46.296;7.524;2024-03-23T02:21:59;94637.72;;;12.16;40.25
21182;BME280;10749;46.296;7.524;2024-03-23T02:24:24;94647.16;;;12.25;39.99
21182;BME280;10749;46.296;7.524;2024-03-23T02:26:50;94637.81;;;12.29;39.85
21182;BME280;10749;46.296;7.524;2024-03-23T02:29:15;94642.09;;;12.30;39.90
21182;BME280;10749;46.296;7.524;2024-03-23T02:31:40;94643.97;;;12.36;39.67
21182;BME280;10749;46.296;7.524;2024-03-23T02:34:06;94649.28;;;12.36;40.06
21182;BME280;10749;46.296;7.524;2024-03-23T02:36:31;94644.78;;;12.36;39.65
21182;BME280;10749;46.296;7.524;2024-03-23T02:38:56;94639.44;;;12.30;40.01
21182;BME280;10749;46.296;7.524;2024-03-23T02:41:22;94644.75;;;12.30;39.56
21182;BME280;10749;46.296;7.524;2024-03-23T02:43:52;94641.88;;;12.31;39.68
21182;BME280;10749;46.296;7.524;2024-03-23T02:46:19;94644.34;;;12.33;39.91
21182;BME280;10749;46.296;7.524;2024-03-23T02:48:44;94648.78;;;12.26;39.92
21182;BME280;10749;46.296;7.524;2024-03-23T02:51:09;94637.13;;;12.20;39.74
21182;BME280;10749;46.296;7.524;2024-03-23T02:53:35;94644.41;;;12.12;39.88
21182;BME280;10749;46.296;7.524;2024-03-23T02:56:00;94647.84;;;12.06;38.86
21182;BME280;10749;46.296;7.524;2024-03-23T02:58:25;94635.53;;;11.98;38.74
21182;BME280;10749;46.296;7.524;2024-03-23T03:00:51;94630.44;;;11.96;39.09
21182;BME280;10749;46.296;7.524;2024-03-23T03:03:16;94628.56;;;11.90;39.18
21182;BME280;10749;46.296;7.524;2024-03-23T03:05:41;94623.28;;;11.97;39.67
21182;BME280;10749;46.296;7.524;2024-03-23T03:08:06;94609.41;;;11.95;39.78
21182;BME280;10749;46.296;7.524;2024-03-23T03:10:32;94612.63;;;11.90;40.03
21182;BME280;10749;46.296;7.524;2024-03-23T03:13:00;94612.78;;;11.82;40.24
21182;BME280;10749;46.296;7.524;2024-03-23T03:15:25;94609.50;;;11.80;40.47
21182;BME280;10749;46.296;7.524;2024-03-23T03:17:50;94606.22;;;11.78;40.47
21182;BME280;10749;46.296;7.524;2024-03-23T03:20:16;94589.31;;;11.79;40.60
21182;BME280;10749;46.296;7.524;2024-03-23T03:22:42;94586.53;;;11.87;40.62
21182;BME280;10749;46.296;7.524;2024-03-23T03:25:08;94583.44;;;11.84;40.41
21182;BME280;10749;46.296;7.524;2024-03-23T03:27:33;94590.00;;;11.88;40.66
21182;BME280;10749;46.296;7.524;2024-03-23T03:29:59;94571.78;;;11.85;40.66
21182;BME280;10749;46.296;7.524;2024-03-23T03:32:28;94565.25;;;11.81;40.70
21182;BME280;10749;46.296;7.524;2024-03-23T03:34:53;94573.00;;;11.82;40.76
21182;BME280;10749;46.296;7.524;2024-03-23T03:37:18;94571.38;;;11.81;40.85
21182;BME280;10749;46.296;7.524;2024-03-23T03:39:44;94570.97;;;11.84;40.97
21182;BME280;10749;46.296;7.524;2024-03-23T03:42:09;94572.25;;;11.88;40.84
21182;BME280;10749;46.296;7.524;2024-03-23T03:44:34;94572.69;;;11.92;40.51
21182;BME280;10749;46.296;7.524;2024-03-23T03:47:01;94566.56;;;11.91;40.41
21182;BME280;10749;46.296;7.524;2024-03-23T03:49:27;94558.19;;;11.94;40.74
21182;BME280;10749;46.296;7.524;2024-03-23T03:51:52;94559.13;;;11.80;39.29
21182;BME280;10749;46.296;7.524;2024-03-23T03:54:17;94556.13;;;11.62;39.45
21182;BME280;10749;46.296;7.524;2024-03-23T03:56:43;94550.19;;;11.60;39.29
21182;BME280;10749;46.296;7.524;2024-03-23T03:59:08;94536.56;;;11.63;39.92
21182;BME280;10749;46.296;7.524;2024-03-23T04:01:34;94548.16;;;11.62;39.78
21182;BME280;10749;46.296;7.524;2024-03-23T04:04:00;94538.19;;;11.64;39.77
21182;BME280;10749;46.296;7.524;2024-03-23T04:06:25;94533.00;;;11.77;40.09
21182;BME280;10749;46.296;7.524;2024-03-23T04:08:51;94532.66;;;11.87;39.98
21182;BME280;10749;46.296;7.524;2024-03-23T04:11:16;94532.31;;;11.96;39.95
21182;BME280;10749;46.296;7.524;2024-03-23T04:13:42;94525.44;;;12.09;39.87
21182;BME280;10749;46.296;7.524;2024-03-23T04:16:08;94512.22;;;12.22;39.75
21182;BME280;10749;46.296;7.524;2024-03-23T04:18:34;94505.97;;;12.29;39.93
21182;BME280;10749;46.296;7.524;2024-03-23T04:21:00;94500.25;;;12.32;39.31
21182;BME280;10749;46.296;7.524;2024-03-23T04:23:25;94501.91;;;12.40;39.61
21182;BME280;10749;46.296;7.524;2024-03-23T04:25:50;94491.69;;;12.37;39.67
21182;BME280;10749;46.296;7.524;2024-03-23T04:28:17;94495.28;;;12.23;39.48
21182;BME280;10749;46.296;7.524;2024-03-23T04:30:42;94489.59;;;12.26;39.49
21182;BME280;10749;46.296;7.524;2024-03-23T04:33:08;94485.16;;;12.33;39.60
21182;BME280;10749;46.296;7.524;2024-03-23T04:35:33;94487.56;;;12.28;39.63
21182;BME280;10749;46.296;7.524;2024-03-23T04:37:58;94493.34;;;12.38;39.56
21182;BME280;10749;46.296;7.524;2024-03-23T04:40:25;94482.91;;;12.43;39.44
21182;BME280;10749;46.296;7.524;2024-03-23T04:42:50;94488.56;;;12.27;39.52
21182;BME280;10749;46.296;7.524;2024-03-23T04:45:19;94489.31;;;12.08;39.54
21182;BME280;10749;46.296;7.524;2024-03-23T04:47:44;94480.97;;;12.11;38.92
21182;BME280;10749;46.296;7.524;2024-03-23T04:50:10;94477.31;;;12.18;39.42
21182;BME280;10749;46.296;7.524;2024-03-23T04:52:38;94478.97;;;12.19;38.88
21182;BME280;10749;46.296;7.524;2024-03-23T04:55:06;94474.47;;;12.20;39.51
21182;BME280;10749;46.296;7.524;2024-03-23T04:57:31;94461.97;;;12.07;40.31
21182;BME280;10749;46.296;7.524;2024-03-23T04:59:57;94458.09;;;12.03;39.97
21182;BME280;10749;46.296;7.524;2024-03-23T05:02:23;94455.25;;;12.11;40.28
21182;BME280;10749;46.296;7.524;2024-03-23T05:04:49;94448.28;;;12.03;39.88
21182;BME280;10749;46.296;7.524;2024-03-23T05:07:15;94449.88;;;11.91;39.49
21182;BME280;10749;46.296;7.524;2024-03-23T05:09:40;94436.78;;;11.83;39.35
21182;BME280;10749;46.296;7.524;2024-03-23T05:12:06;94437.22;;;11.93;39.88
21182;BME280;10749;46.296;7.524;2024-03-23T05:14:31;94433.97;;;11.91;39.74
21182;BME280;10749;46.296;7.524;2024-03-23T05:16:57;94425.38;;;11.89;39.59
21182;BME280;10749;46.296;7.524;2024-03-23T05:19:23;94412.34;;;11.94;40.17
21182;BME280;10749;46.296;7.524;2024-03-23T05:21:48;94412.56;;;11.99;40.22
21182;BME280;10749;46.296;7.524;2024-03-23T05:24:13;94419.72;;;12.06;40.14
21182;BME280;10749;46.296;7.524;2024-03-23T05:26:39;94412.63;;;12.13;40.49
21182;BME280;10749;46.296;7.524;2024-03-23T05:29:04;94427.13;;;12.17;40.29
21182;BME280;10749;46.296;7.524;2024-03-23T05:31:30;94409.78;;;12.21;40.18
21182;BME280;10749;46.296;7.524;2024-03-23T05:33:56;94393.06;;;12.20;40.56
21182;BME280;10749;46.296;7.524;2024-03-23T05:36:21;94397.75;;;12.25;40.37
21182;BME280;10749;46.296;7.524;2024-03-23T05:38:47;94407.94;;;12.15;40.24
21182;BME280;10749;46.296;7.524;2024-03-23T05:41:12;94406.16;;;11.74;40.16
21182;BME280;10749;46.296;7.524;2024-03-23T05:43:37;94394.44;;;11.62;39.71
21182;BME280;10749;46.296;7.524;2024-03-23T05:46:03;94390.56;;;11.65;40.53
21182;BME280;10749;46.296;7.524;2024-03-23T05:48:34;94403.09;;;11.77;40.91
21182;BME280;10749;46.296;7.524;2024-03-23T05:50:59;94399.50;;;11.91;40.57
21182;BME280;10749;46.296;7.524;2024-03-23T05:53:25;94401.75;;;11.94;41.06
21182;BME280;10749;46.296;7.524;2024-03-23T05:55:51;94414.78;;;11.89;41.49
21182;BME280;10749;46.296;7.524;2024-03-23T05:58:19;94421.31;;;11.93;41.82
21182;BME280;10749;46.296;7.524;2024-03-23T06:00:45;94443.56;;;11.92;41.63
21182;BME280;10749;46.296;7.524;2024-03-23T06:03:11;94464.16;;;11.90;40.63
21182;BME280;10749;46.296;7.524;2024-03-23T06:05:37;94466.13;;;11.75;40.90
21182;BME280;10749;46.296;7.524;2024-03-23T06:08:02;94479.75;;;11.72;40.70
21182;BME280;10749;46.296;7.524;2024-03-23T06:10:28;94483.16;;;11.66;42.20
21182;BME280;10749;46.296;7.524;2024-03-23T06:12:53;94483.69;;;11.83;42.30
21182;BME280;10749;46.296;7.524;2024-03-23T06:15:19;94488.66;;;11.92;43.00
21182;BME280;10749;46.296;7.524;2024-03-23T06:17:44;94482.53;;;11.98;42.66
21182;BME280;10749;46.296;7.524;2024-03-23T06:20:10;94496.22;;;12.02;42.74
21182;BME280;10749;46.296;7.524;2024-03-23T06:22:36;94504.75;;;11.97;41.57
21182;BME280;10749;46.296;7.524;2024-03-23T06:25:01;94505.56;;;11.91;42.21
21182;BME280;10749;46.296;7.524;2024-03-23T06:27:26;94517.81;;;11.92;42.84
21182;BME280;10749;46.296;7.524;2024-03-23T06:29:52;94520.47;;;11.92;42.92
21182;BME280;10749;46.296;7.524;2024-03-23T06:32:17;94541.88;;;11.91;43.65
21182;BME280;10749;46.296;7.524;2024-03-23T06:34:43;94535.06;;;11.82;44.01
21182;BME280;10749;46.296;7.524;2024-03-23T06:37:08;94529.19;;;11.86;43.97
21182;BME280;10749;46.296;7.524;2024-03-23T06:39:35;94537.97;;;11.87;43.97
21182;BME280;10749;46.296;7.524;2024-03-23T06:42:01;94532.59;;;11.80;44.38
21182;BME280;10749;46.296;7.524;2024-03-23T06:44:27;94532.94;;;11.71;44.48
21182;BME280;10749;46.296;7.524;2024-03-23T06:46:52;94529.41;;;11.64;44.80
21182;BME280;10749;46.296;7.524;2024-03-23T06:49:17;94511.72;;;11.71;44.82
21182;BME280;10749;46.296;7.524;2024-03-23T06:51:45;94509.84;;;11.65;45.27
21182;BME280;10749;46.296;7.524;2024-03-23T06:54:10;94501.53;;;11.68;45.64
21182;BME280;10749;46.296;7.524;2024-03-23T06:56:35;94507.13;;;11.79;45.79
21182;BME280;10749;46.296;7.524;2024-03-23T06:59:01;94512.63;;;11.84;46.36
21182;BME280;10749;46.296;7.524;2024-03-23T07:01:26;94517.16;;;11.84;46.17
21182;BME280;10749;46.296;7.524;2024-03-23T07:03:51;94524.06;;;11.85;46.30
21182;BME280;10749;46.296;7.524;2024-03-23T07:06:17;94538.78;;;11.87;46.35
21182;BME280;10749;46.296;7.524;2024-03-23T07:08:42;94538.16;;;11.85;44.73
21182;BME280;10749;46.296;7.524;2024-03-23T07:11:07;94538.31;;;11.77;44.16
21182;BME280;10749;46.296;7.524;2024-03-23T07:13:33;94536.66;;;11.76;44.94
21182;BME280;10749;46.296;7.524;2024-03-23T07:15:58;94528.56;;;11.84;45.19
21182;BME280;10749;46.296;7.524;2024-03-23T07:18:25;94537.16;;;11.86;45.78
21182;BME280;10749;46.296;7.524;2024-03-23T07:20:57;94528.44;;;11.92;45.71
21182;BME280;10749;46.296;7.524;2024-03-23T07:23:23;94526.19;;;11.96;45.92
21182;BME280;10749;46.296;7.524;2024-03-23T07:26:04;94522.97;;;12.00;46.20
21182;BME280;10749;46.296;7.524;2024-03-23T07:28:31;94518.44;;;12.01;46.15
21182;BME280;10749;46.296;7.524;2024-03-23T07:33:29;94521.38;;;12.13;46.05
21182;BME280;10749;46.296;7.524;2024-03-23T07:35:54;94517.53;;;12.22;46.17
21182;BME280;10749;46.296;7.524;2024-03-23T07:38:19;94527.94;;;12.17;46.87
21182;BME280;10749;46.296;7.524;2024-03-23T07:40:44;94507.88;;;12.08;46.85
21182;BME280;10749;46.296;7.524;2024-03-23T07:43:10;94524.72;;;11.93;46.39
21182;BME280;10749;46.296;7.524;2024-03-23T07:45:35;94535.03;;;11.75;47.70
21182;BME280;10749;46.296;7.524;2024-03-23T07:48:03;94533.94;;;11.97;47.53
21182;BME280;10749;46.296;7.524;2024-03-23T07:50:28;94533.84;;;11.84;47.08
21182;BME280;10749;46.296;7.524;2024-03-23T07:52:53;94522.28;;;11.64;48.16
21182;BME280;10749;46.296;7.524;2024-03-23T07:55:19;94535.97;;;11.40;48.98
21182;BME280;10749;46.296;7.524;2024-03-23T07:57:44;94546.09;;;11.30;48.56
21182;BME280;10749;46.296;7.524;2024-03-23T08:00:09;94529.25;;;11.16;48.68
21182;BME280;10749;46.296;7.524;2024-03-23T08:02:35;94525.91;;;11.07;49.96
21182;BME280;10749;46.296;7.524;2024-03-23T08:05:00;94523.41;;;10.99;49.04
21182;BME280;10749;46.296;7.524;2024-03-23T08:07:25;94516.09;;;11.01;48.39
21182;BME280;10749;46.296;7.524;2024-03-23T08:09:51;94518.53;;;11.03;49.94
21182;BME280;10749;46.296;7.524;2024-03-23T08:12:16;94517.41;;;11.12;49.15
21182;BME280;10749;46.296;7.524;2024-03-23T08:14:41;94511.00;;;11.28;49.78
21182;BME280;10749;46.296;7.524;2024-03-23T08:17:07;94496.72;;;11.50;49.45
21182;BME280;10749;46.296;7.524;2024-03-23T08:19:32;94492.50;;;11.90;48.84
21182;BME280;10749;46.296;7.524;2024-03-23T08:21:57;94505.91;;;12.23;48.43
21182;BME280;10749;46.296;7.524;2024-03-23T08:24:23;94497.84;;;12.44;47.54
21182;BME280;10749;46.296;7.524;2024-03-23T08:26:48;94505.78;;;12.44;47.75
21182;BME280;10749;46.296;7.524;2024-03-23T08:29:13;94516.19;;;12.39;47.90
21182;BME280;10749;46.296;7.524;2024-03-23T08:31:39;94503.97;;;11.69;49.70
21182;BME280;10749;46.296;7.524;2024-03-23T08:34:04;94509.22;;;11.63;49.50
21182;BME280;10749;46.296;7.524;2024-03-23T08:36:29;94516.22;;;11.70;49.35
21182;BME280;10749;46.296;7.524;2024-03-23T08:38:55;94511.88;;;11.90;48.67
21182;BME280;10749;46.296;7.524;2024-03-23T08:41:21;94510.13;;;12.11;48.43
21182;BME280;10749;46.296;7.524;2024-03-23T08:43:46;94512.22;;;12.22;48.64
21182;BME280;10749;46.296;7.524;2024-03-23T08:46:14;94504.56;;;11.92;49.53
21182;BME280;10749;46.296;7.524;2024-03-23T08:48:42;94515.78;;;11.94;50.54
21182;BME280;10749;46.296;7.524;2024-03-23T08:51:15;94512.84;;;12.17;48.83
21182;BME280;10749;46.296;7.524;2024-03-23T08:53:41;94515.56;;;12.37;49.04
21182;BME280;10749;46.296;7.524;2024-03-23T08:56:07;94511.38;;;12.62;49.09
21182;BME280;10749;46.296;7.524;2024-03-23T08:58:34;94512.22;;;12.69;49.69
21182;BME280;10749;46.296;7.524;2024-03-23T09:01:11;94516.06;;;12.60;50.36
21182;BME280;10749;46.296;7.524;2024-03-23T09:03:38;94522.78;;;12.56;50.96
21182;BME280;10749;46.296;7.524;2024-03-23T09:06:11;94528.13;;;12.63;51.16
21182;BME280;10749;46.296;7.524;2024-03-23T09:08:36;94511.03;;;12.91;49.96
21182;BME280;10749;46.296;7.524;2024-03-23T09:11:06;94509.59;;;12.82;50.44
21182;BME280;10749;46.296;7.524;2024-03-23T09:13:33;94521.47;;;13.00;50.21
21182;BME280;10749;46.296;7.524;2024-03-23T09:15:58;94514.31;;;13.07;50.68
21182;BME280;10749;46.296;7.524;2024-03-23T09:18:25;94503.75;;;13.20;50.89
21182;BME280;10749;46.296;7.524;2024-03-23T09:20:50;94492.09;;;13.40;50.67
21182;BME280;10749;46.296;7.524;2024-03-23T09:23:15;94492.47;;;13.70;50.09
21182;BME280;10749;46.296;7.524;2024-03-23T09:25:41;94493.81;;;14.06;49.02
21182;BME280;10749;46.296;7.524;2024-03-23T09:28:07;94487.03;;;14.16;48.98
21182;BME280;10749;46.296;7.524;2024-03-23T09:30:34;94492.59;;;14.02;49.48
21182;BME280;10749;46.296;7.524;2024-03-23T09:32:59;94499.56;;;14.03;49.72
21182;BME280;10749;46.296;7.524;2024-03-23T09:35:26;94488.75;;;13.84;50.80
21182;BME280;10749;46.296;7.524;2024-03-23T09:37:51;94485.28;;;13.71;50.52
21182;BME280;10749;46.296;7.524;2024-03-23T09:40:17;94495.72;;;13.72;50.57
21182;BME280;10749;46.296;7.524;2024-03-23T09:42:42;94499.19;;;13.79;50.29
21182;BME280;10749;46.296;7.524;2024-03-23T09:45:17;94483.59;;;13.96;49.79
21182;BME280;10749;46.296;7.524;2024-03-23T09:47:45;94492.56;;;14.15;48.87
21182;BME280;10749;46.296;7.524;2024-03-23T09:50:13;94482.53;;;14.17;49.36
21182;BME280;10749;46.296;7.524;2024-03-23T09:52:38;94468.03;;;14.00;49.74
21182;BME280;10749;46.296;7.524;2024-03-23T09:55:04;94485.91;;;13.86;50.73
21182;BME280;10749;46.296;7.524;2024-03-23T09:57:29;94479.56;;;13.80;51.18
21182;BME280;10749;46.296;7.524;2024-03-23T09:59:55;94483.22;;;13.79;50.57
21182;BME280;10749;46.296;7.524;2024-03-23T10:02:22;94487.53;;;13.87;49.92
21182;BME280;10749;46.296;7.524;2024-03-23T10:04:47;94488.56;;;13.79;50.44
21182;BME280;10749;46.296;7.524;2024-03-23T10:07:14;94498.41;;;13.59;53.04
21182;BME280;10749;46.296;7.524;2024-03-23T10:09:40;94491.47;;;13.45;52.84
21182;BME280;10749;46.296;7.524;2024-03-23T10:12:13;94508.44;;;13.31;52.44
21182;BME280;10749;46.296;7.524;2024-03-23T10:14:41;94498.84;;;13.23;52.44
21182;BME280;10749;46.296;7.524;2024-03-23T10:17:22;94513.53;;;13.26;52.15
21182;BME280;10749;46.296;7.524;2024-03-23T10:19:50;94506.63;;;13.25;52.21
21182;BME280;10749;46.296;7.524;2024-03-23T10:22:20;94525.81;;;13.27;52.37
21182;BME280;10749;46.296;7.524;2024-03-23T10:24:46;94537.47;;;13.26;52.08
21182;BME280;10749;46.296;7.524;2024-03-23T10:27:16;94562.19;;;13.20;52.46
21182;BME280;10749;46.296;7.524;2024-03-23T10:29:45;94562.97;;;13.07;52.89
21182;BME280;10749;46.296;7.524;2024-03-23T10:32:12;94579.75;;;13.14;52.18
21182;BME280;10749;46.296;7.524;2024-03-23T10:34:38;94579.47;;;12.89;52.16
21182;BME280;10749;46.296;7.524;2024-03-23T10:37:04;94576.41;;;12.86;51.91
21182;BME280;10749;46.296;7.524;2024-03-23T10:39:38;94575.19;;;12.95;52.30
21182;BME280;10749;46.296;7.524;2024-03-23T10:42:05;94583.47;;;13.20;51.69
21182;BME280;10749;46.296;7.524;2024-03-23T10:44:31;94585.13;;;13.40;51.76
21182;BME280;10749;46.296;7.524;2024-03-23T10:47:01;94583.88;;;13.43;51.81
21182;BME280;10749;46.296;7.524;2024-03-23T10:49:28;94589.81;;;13.32;51.41
21182;BME280;10749;46.296;7.524;2024-03-23T10:51:56;94586.78;;;13.42;51.13
21182;BME280;10749;46.296;7.524;2024-03-23T10:54:21;94585.13;;;13.47;51.22
21182;BME280;10749;46.296;7.524;2024-03-23T10:56:50;94585.53;;;13.37;50.92
21182;BME280;10749;46.296;7.524;2024-03-23T10:59:17;94587.97;;;13.32;50.68
21182;BME280;10749;46.296;7.524;2024-03-23T11:01:59;94582.25;;;13.29;49.84
21182;BME280;10749;46.296;7.524;2024-03-23T11:04:37;94578.94;;;13.14;49.57
21182;BME280;10749;46.296;7.524;2024-03-23T11:09:52;94579.00;;;13.40;49.61
21182;BME280;10749;46.296;7.524;2024-03-23T11:15:05;94583.50;;;13.99;48.79
21182;BME280;10749;46.296;7.524;2024-03-23T11:17:31;94586.31;;;14.37;47.37
21182;BME280;10749;46.296;7.524;2024-03-23T11:20:04;94607.59;;;15.01;48.26
21182;BME280;10749;46.296;7.524;2024-03-23T11:22:48;94614.88;;;15.18;47.11
21182;BME280;10749;46.296;7.524;2024-03-23T11:25:21;94612.88;;;15.45;47.13
21182;BME280;10749;46.296;7.524;2024-03-23T11:27:49;94627.63;;;15.54;46.72
21182;BME280;10749;46.296;7.524;2024-03-23T11:32:42;94630.28;;;15.54;44.45
21182;BME280;10749;46.296;7.524;2024-03-23T11:35:08;94623.47;;;15.65;44.67
21182;BME280;10749;46.296;7.524;2024-03-23T11:37:38;94620.97;;;15.95;45.86
21182;BME280;10749;46.296;7.524;2024-03-23T11:40:19;94622.06;;;16.12;44.88
21182;BME280;10749;46.296;7.524;2024-03-23T11:42:44;94602.09;;;16.39;44.35
21182;BME280;10749;46.296;7.524;2024-03-23T11:45:10;94609.91;;;16.77;45.31
21182;BME280;10749;46.296;7.524;2024-03-23T11:47:35;94603.13;;;16.56;40.98
21182;BME280;10749;46.296;7.524;2024-03-23T11:50:01;94598.84;;;16.55;42.51
21182;BME280;10749;46.296;7.524;2024-03-23T11:52:26;94594.47;;;16.79;42.25
21182;BME280;10749;46.296;7.524;2024-03-23T11:54:51;94580.13;;;17.10;42.71
21182;BME280;10749;46.296;7.524;2024-03-23T11:57:16;94572.56;;;16.34;35.76
21182;BME280;10749;46.296;7.524;2024-03-23T11:59:42;94574.31;;;16.40;37.41
21182;BME280;10749;46.296;7.524;2024-03-23T12:02:13;94558.66;;;16.69;34.83
21182;BME280;10749;46.296;7.524;2024-03-23T12:04:41;94555.66;;;17.25;39.67
21182;BME280;10749;46.296;7.524;2024-03-23T12:07:14;94542.97;;;17.32;37.43
21182;BME280;10749;46.296;7.524;2024-03-23T12:09:40;94558.69;;;17.70;38.42
21182;BME280;10749;46.296;7.524;2024-03-23T12:12:11;94553.16;;;17.83;36.79
21182;BME280;10749;46.296;7.524;2024-03-23T12:14:38;94551.41;;;18.00;36.18
21182;BME280;10749;46.296;7.524;2024-03-23T12:17:13;94531.09;;;17.58;33.56
21182;BME280;10749;46.296;7.524;2024-03-23T12:19:39;94547.59;;;17.54;34.48
21182;BME280;10749;46.296;7.524;2024-03-23T12:22:05;94526.59;;;17.70;35.38
21182;BME280;10749;46.296;7.524;2024-03-23T12:24:32;94527.78;;;17.44;36.14
21182;BME280;10749;46.296;7.524;2024-03-23T12:27:03;94532.75;;;16.99;35.44
21182;BME280;10749;46.296;7.524;2024-03-23T12:29:32;94528.56;;;16.55;34.19
21182;BME280;10749;46.296;7.524;2024-03-23T12:32:01;94518.13;;;16.35;33.50
21182;BME280;10749;46.296;7.524;2024-03-23T12:34:27;94512.78;;;17.01;35.24
21182;BME280;10749;46.296;7.524;2024-03-23T12:36:53;94506.34;;;17.21;34.04
21182;BME280;10749;46.296;7.524;2024-03-23T12:39:19;94512.19;;;17.41;34.33
21182;BME280;10749;46.296;7.524;2024-03-23T12:41:46;94501.47;;;17.71;34.77
21182;BME280;10749;46.296;7.524;2024-03-23T12:44:11;94511.09;;;17.60;28.79
21182;BME280;10749;46.296;7.524;2024-03-23T12:46:38;94498.00;;;17.40;31.94
21182;BME280;10749;46.296;7.524;2024-03-23T12:49:03;94503.75;;;17.56;33.31
21182;BME280;10749;46.296;7.524;2024-03-23T12:51:29;94504.84;;;17.89;34.40
21182;BME280;10749;46.296;7.524;2024-03-23T12:53:54;94495.84;;;17.61;33.42
21182;BME280;10749;46.296;7.524;2024-03-23T12:56:19;94488.66;;;16.60;31.06
21182;BME280;10749;46.296;7.524;2024-03-23T12:58:45;94494.50;;;16.50;29.50
21182;BME280;10749;46.296;7.524;2024-03-23T13:01:10;94490.03;;;16.44;29.26
21182;BME280;10749;46.296;7.524;2024-03-23T13:03:35;94501.81;;;16.91;31.25
21182;BME280;10749;46.296;7.524;2024-03-23T13:06:01;94507.41;;;17.31;29.49
21182;BME280;10749;46.296;7.524;2024-03-23T13:08:26;94499.00;;;17.58;31.70
21182;BME280;10749;46.296;7.524;2024-03-23T13:10:52;94498.66;;;17.89;30.21
21182;BME280;10749;46.296;7.524;2024-03-23T13:13:17;94500.38;;;17.19;25.95
21182;BME280;10749;46.296;7.524;2024-03-23T13:15:51;94496.16;;;16.51;25.81
21182;BME280;10749;46.296;7.524;2024-03-23T13:18:17;94509.63;;;16.56;27.12
21182;BME280;10749;46.296;7.524;2024-03-23T13:20:42;94495.41;;;16.63;27.93
21182;BME280;10749;46.296;7.524;2024-03-23T13:23:08;94498.97;;;16.38;27.32
21182;BME280;10749;46.296;7.524;2024-03-23T13:25:34;94496.09;;;16.88;27.78
21182;BME280;10749;46.296;7.524;2024-03-23T13:27:59;94504.47;;;16.43;26.81
21182;BME280;10749;46.296;7.524;2024-03-23T13:30:24;94509.38;;;16.65;28.09
21182;BME280;10749;46.296;7.524;2024-03-23T13:32:50;94512.03;;;16.94;28.80
21182;BME280;10749;46.296;7.524;2024-03-23T13:35:15;94493.41;;;17.06;25.48
21182;BME280;10749;46.296;7.524;2024-03-23T13:37:41;94489.22;;;17.10;27.28
21182;BME280;10749;46.296;7.524;2024-03-23T13:40:07;94492.63;;;18.05;28.60
21182;BME280;10749;46.296;7.524;2024-03-23T13:42:33;94492.84;;;18.15;26.87
21182;BME280;10749;46.296;7.524;2024-03-23T13:44:58;94476.09;;;17.62;27.10
21182;BME280;10749;46.296;7.524;2024-03-23T13:47:23;94476.13;;;17.43;27.21
21182;BME280;10749;46.296;7.524;2024-03-23T13:49:49;94457.97;;;16.81;25.72
21182;BME280;10749;46.296;7.524;2024-03-23T13:52:14;94480.78;;;16.95;26.00
21182;BME280;10749;46.296;7.524;2024-03-23T13:54:39;94452.53;;;16.39;25.37
21182;BME280;10749;46.296;7.524;2024-03-23T13:57:10;94455.63;;;16.36;24.56
21182;BME280;10749;46.296;7.524;2024-03-23T13:59:36;94449.63;;;15.86;26.03